Airfield :
LOGIN :

Register | Disclaimer

   EN    FR    IT 

 










Legend :    VFR   Marginal VFR   IFR   Intensive IFR   Very Intensive IFR
Visi :
Ceiling :
>= 8 km
>= 3000ft
5 to 8 km
1000 to 3000 ft
1500m to 5 km
500 to 1000 ft
800 to 1500m
200 to 500 ft
< 800m
< 200 ft
Symbols :   Thunderstorms  Fog  Heavy snow  Heavy precipitations  Wind > 20 kt
SIGMETs :     Misc.  Thunderstorms  Icing  Turbulence  Mountain Waves  Volcanic Ashes







- Airport Elevation : 3 ft
- IATA code : LWR


EHLW - Leuuwarden Air Base

CURRENT METAR :
  • 240525Z AUTO 22005KT 9999 DZ FEW027 SCT032 BKN049 07/06 Q1005 BLU

EXPIRED METARs :
  • 240455Z AUTO 20004KT 9999 SCT029 SCT032 BKN072 07/06 Q1005 BLU
  • 240425Z AUTO 19004KT 9999 BKN028 BKN063 OVC070 07/07 Q1005 BLU
  • 240355Z AUTO 20005KT 160V220 9999 BKN033 OVC068 07/07 Q1005 BLU
  • 240325Z AUTO 20006KT 160V230 9999 SCT053 BKN060 OVC070 07/07 Q1005 BLU
  • 240255Z AUTO 20006KT 170V230 9999 FEW057 BKN085 OVC093 07/06 Q1005 BLU

Expired Forecast.
No reported NOTAMs for that airfield.



MET'MAP, your aeronautical weather chart ! - Copyright ORBIFLY December 2007 - Disclaimer

ORBIFLY MET'MAP TEAM :

Programming & Development : Alexandra Zaïnal
Concept & Development : Baudouin d'Aumeries
Co-Development & Prog : Marc-Olivier Méhu
Technical & hardware support : Manuel Goepfert

Contact : metmap@orbifly.com




SOURCES & CREDITS :

   NOAA